Terminal Aerodrome Forecast
Issued by NWS Cleveland, OH

Home | Current Version | Previous Version | Text Only | Print | Product List | Glossary On
Versions: 1 2 3 4 5 6 7 8 9 10 11 12 13 14 15 16
000
FTUS41 KCLE 231724
TAFCAK
TAF
KCAK 231724Z 2318/2418 12009KT P6SM SCT250
     FM240200 11006KT P6SM SCT070 BKN200
     FM241000 15009KT 6SM -SHRA BR BKN025 OVC050=

USA.gov is the U.S. government's official web portal to all federal, state and local government web resources and services.